createdAt,value
2023-02-28T00:01:37.528Z,54.60
2023-02-28T00:04:06.514Z,48.40
2023-02-28T00:06:35.651Z,54.70
2023-02-28T00:09:05.128Z,50.00
2023-02-28T00:11:34.082Z,43.90
2023-02-28T00:14:03.248Z,42.00
2023-02-28T00:16:31.833Z,45.90
2023-02-28T00:19:00.831Z,33.80
2023-02-28T00:21:29.975Z,39.00
2023-02-28T00:23:58.691Z,37.20
2023-02-28T00:26:27.678Z,34.80
2023-02-28T00:28:56.793Z,36.80
2023-02-28T00:31:25.389Z,42.90
2023-02-28T00:33:54.350Z,42.40
2023-02-28T00:36:24.289Z,40.20
2023-02-28T00:38:53.424Z,51.60
2023-02-28T00:41:22.254Z,42.70
2023-02-28T00:43:51.489Z,51.10
2023-02-28T00:46:20.349Z,50.50
2023-02-28T00:48:49.469Z,33.50
2023-02-28T00:51:18.140Z,47.40
2023-02-28T00:53:46.960Z,45.30
2023-02-28T00:56:15.609Z,46.50
2023-02-28T00:58:44.530Z,40.80
2023-02-28T01:01:13.262Z,46.70
2023-02-28T01:03:42.389Z,36.80
2023-02-28T01:06:11.601Z,37.60
2023-02-28T01:08:41.041Z,33.90
2023-02-28T01:11:12.133Z,25.30
2023-02-28T01:13:43.954Z,36.20
2023-02-28T01:16:15.193Z,38.10
2023-02-28T01:18:44.148Z,39.70
2023-02-28T01:21:17.147Z,28.40
2023-02-28T01:23:48.569Z,38.80
2023-02-28T01:28:52.516Z,35.30
2023-02-28T01:31:22.121Z,37.10
2023-02-28T01:36:25.729Z,44.10
2023-02-28T01:38:55.455Z,56.30
2023-02-28T01:41:28.027Z,51.10
2023-02-28T01:44:09.177Z,43.50
2023-02-28T01:46:38.190Z,42.50
2023-02-28T01:49:13.042Z,44.60
2023-02-28T01:51:53.377Z,35.70
2023-02-28T01:54:27.307Z,37.00
2023-02-28T01:57:13.142Z,42.40
2023-02-28T01:59:55.947Z,36.90
2023-02-28T02:02:26.123Z,42.40
2023-02-28T02:05:00.307Z,39.50
2023-02-28T02:07:33.556Z,42.50
2023-02-28T02:10:12.787Z,43.80
2023-02-28T02:12:44.934Z,39.40
2023-02-28T02:15:24.340Z,44.50
2023-02-28T02:18:02.935Z,30.80
2023-02-28T02:20:50.454Z,38.60
2023-02-28T02:23:58.492Z,38.00
2023-02-28T02:26:52.293Z,44.90
2023-02-28T02:29:33.313Z,39.20
2023-02-28T02:32:26.248Z,47.00
2023-02-28T02:35:24.932Z,45.20
2023-02-28T02:37:57.062Z,41.50
2023-02-28T02:40:31.247Z,40.10
2023-02-28T02:43:08.434Z,29.60
2023-02-28T02:45:46.257Z,30.30
2023-02-28T02:48:19.519Z,29.90
2023-02-28T02:50:58.139Z,33.80
2023-02-28T02:53:34.754Z,32.70
2023-02-28T02:56:07.115Z,40.40
2023-02-28T02:58:43.789Z,36.10
2023-02-28T03:01:18.611Z,39.40
2023-02-28T03:03:49.522Z,37.20
2023-02-28T03:06:18.705Z,30.50
2023-02-28T03:08:48.396Z,52.50
2023-02-28T03:11:18.555Z,46.60
2023-02-28T03:13:53.114Z,44.10
2023-02-28T03:16:31.173Z,46.30
2023-02-28T03:19:17.452Z,40.20
2023-02-28T03:22:03.471Z,41.20
2023-02-28T03:25:03.300Z,37.70
2023-02-28T03:27:37.325Z,41.00
2023-02-28T03:30:17.108Z,37.30
2023-02-28T03:33:01.773Z,45.60
2023-02-28T03:35:37.397Z,41.90
2023-02-28T03:38:35.748Z,36.70
2023-02-28T03:41:31.462Z,38.10
2023-02-28T03:44:24.263Z,30.80
2023-02-28T03:47:10.394Z,29.20
2023-02-28T03:49:50.440Z,26.40
2023-02-28T03:52:23.244Z,28.30
2023-02-28T03:55:04.134Z,27.90
2023-02-28T03:57:35.699Z,32.90
2023-02-28T04:00:11.226Z,24.30
2023-02-28T04:02:43.688Z,27.20
2023-02-28T04:05:12.994Z,31.10
2023-02-28T04:07:41.631Z,29.00
2023-02-28T04:10:11.499Z,39.00
2023-02-28T04:12:40.131Z,22.90
2023-02-28T04:15:09.684Z,29.80
2023-02-28T04:17:38.771Z,28.20
2023-02-28T04:20:11.161Z,32.60
2023-02-28T04:22:40.055Z,29.80
2023-02-28T04:25:09.346Z,35.00
2023-02-28T04:27:38.233Z,36.50
2023-02-28T04:30:08.032Z,41.70
2023-02-28T04:32:36.625Z,36.80
2023-02-28T04:35:06.396Z,39.60
2023-02-28T04:37:38.073Z,27.10
2023-02-28T04:40:08.044Z,34.10
2023-02-28T04:42:37.081Z,31.60
2023-02-28T04:45:06.626Z,31.50
2023-02-28T04:47:35.762Z,30.40
2023-02-28T04:50:04.987Z,28.50
2023-02-28T04:52:33.589Z,24.10
2023-02-28T04:55:03.118Z,28.00
2023-02-28T04:57:31.901Z,30.60
2023-02-28T05:00:00.512Z,30.60
2023-02-28T05:02:29.549Z,24.60
2023-02-28T05:04:58.626Z,22.60
2023-02-28T05:07:27.198Z,29.30
2023-02-28T05:09:55.954Z,27.70
2023-02-28T05:12:24.809Z,27.50
2023-02-28T05:14:53.375Z,26.30
2023-02-28T05:17:22.425Z,22.40
2023-02-28T05:19:51.422Z,27.00
2023-02-28T05:22:20.048Z,29.10
2023-02-28T05:24:48.783Z,27.40
2023-02-28T05:27:18.116Z,33.10
2023-02-28T05:29:46.796Z,31.10
2023-02-28T05:32:16.965Z,31.80
2023-02-28T05:34:46.340Z,35.10
2023-02-28T05:37:16.950Z,31.00
2023-02-28T05:39:45.825Z,29.90
2023-02-28T05:42:15.000Z,35.30
2023-02-28T05:44:43.583Z,35.80
2023-02-28T05:47:14.250Z,40.20
2023-02-28T05:49:43.356Z,32.10
2023-02-28T05:52:12.012Z,32.70
2023-02-28T05:54:41.022Z,37.00
2023-02-28T05:57:18.849Z,40.30
2023-02-28T05:59:53.045Z,36.60
2023-02-28T06:02:22.250Z,47.70
2023-02-28T06:04:51.076Z,49.00
2023-02-28T06:07:19.714Z,45.70
2023-02-28T06:09:48.668Z,32.90
2023-02-28T06:12:17.208Z,44.30
2023-02-28T06:14:46.168Z,37.10
2023-02-28T06:17:14.895Z,36.10
2023-02-28T06:19:43.464Z,47.30
2023-02-28T06:22:12.216Z,46.30
2023-02-28T06:24:41.207Z,46.20
2023-02-28T06:27:09.816Z,35.00
2023-02-28T06:29:41.383Z,73.70
2023-02-28T06:32:10.706Z,108.00
2023-02-28T06:34:39.502Z,74.50
2023-02-28T06:37:08.295Z,46.40
2023-02-28T06:39:37.729Z,49.10
2023-02-28T06:42:07.090Z,86.70
2023-02-28T06:44:39.547Z,88.50
2023-02-28T06:47:08.835Z,36.10
2023-02-28T06:49:37.722Z,51.90
2023-02-28T06:52:06.516Z,104.40
2023-02-28T06:54:35.561Z,84.10
2023-02-28T06:57:04.268Z,92.60
2023-02-28T06:59:33.119Z,99.00
2023-02-28T07:02:03.368Z,78.40
2023-02-28T07:04:31.985Z,93.10
2023-02-28T07:07:00.622Z,45.80
2023-02-28T07:09:31.092Z,89.10
2023-02-28T07:12:00.369Z,36.60
2023-02-28T07:14:29.095Z,38.70
2023-02-28T07:16:57.854Z,43.30
2023-02-28T07:19:26.475Z,71.60
2023-02-28T07:21:55.391Z,52.20
2023-02-28T07:24:26.979Z,51.80
2023-02-28T07:26:55.561Z,49.10
2023-02-28T07:29:24.398Z,50.30
2023-02-28T07:31:54.456Z,38.50
2023-02-28T07:34:23.843Z,33.90
2023-02-28T07:36:55.585Z,33.10
2023-02-28T07:39:24.654Z,31.80
2023-02-28T07:41:53.459Z,37.40
2023-02-28T07:44:25.397Z,46.50
2023-02-28T07:46:54.414Z,33.60
2023-02-28T07:49:23.101Z,33.10
2023-02-28T07:51:52.123Z,33.30
2023-02-28T07:54:20.941Z,30.00
2023-02-28T07:56:49.481Z,45.90
2023-02-28T07:59:18.464Z,32.70
2023-02-28T08:01:47.267Z,43.90
2023-02-28T08:04:15.840Z,33.40
2023-02-28T08:06:44.562Z,40.70
2023-02-28T08:09:13.561Z,42.40
2023-02-28T08:11:42.385Z,35.20
2023-02-28T08:14:11.625Z,34.20
2023-02-28T08:16:40.596Z,33.50
2023-02-28T08:19:09.183Z,31.50
2023-02-28T08:21:38.422Z,36.20
2023-02-28T08:24:07.687Z,29.50
2023-02-28T08:26:36.322Z,25.80
2023-02-28T08:29:05.598Z,26.30
2023-02-28T08:31:36.671Z,30.10
2023-02-28T08:34:13.826Z,26.40
2023-02-28T08:36:44.154Z,20.70
2023-02-28T08:39:13.751Z,17.80
2023-02-28T08:41:44.005Z,24.70
2023-02-28T08:44:13.038Z,14.70
2023-02-28T08:46:42.245Z,18.00
2023-02-28T08:49:12.499Z,15.20
2023-02-28T08:51:41.561Z,13.40
2023-02-28T08:54:10.503Z,14.50
2023-02-28T08:56:47.318Z,20.40
2023-02-28T08:59:45.635Z,22.00
2023-02-28T09:02:25.222Z,21.40
2023-02-28T09:07:38.243Z,17.70
2023-02-28T09:10:07.454Z,15.70
2023-02-28T09:12:36.877Z,22.90
2023-02-28T09:15:06.465Z,17.20
2023-02-28T09:17:43.336Z,12.60
2023-02-28T09:20:20.639Z,17.70
2023-02-28T09:22:50.329Z,20.80
2023-02-28T09:25:18.891Z,21.80
2023-02-28T09:27:47.585Z,22.40
2023-02-28T09:30:17.520Z,23.50
2023-02-28T09:32:56.939Z,24.10
2023-02-28T09:35:49.993Z,20.50
2023-02-28T09:38:19.630Z,18.90
2023-02-28T09:40:57.679Z,30.30
2023-02-28T09:43:36.018Z,26.80
2023-02-28T09:46:34.599Z,24.50
2023-02-28T09:49:25.850Z,24.00
2023-02-28T09:52:05.526Z,16.40
2023-02-28T09:54:35.552Z,20.10
2023-02-28T09:57:30.723Z,15.80
2023-02-28T10:00:11.741Z,27.80
2023-02-28T10:03:07.352Z,33.80
2023-02-28T10:05:58.813Z,18.50
2023-02-28T10:08:33.254Z,16.20
2023-02-28T10:11:05.770Z,17.50
2023-02-28T10:13:57.165Z,17.90
2023-02-28T10:17:06.729Z,17.40
2023-02-28T10:19:56.691Z,15.60
2023-02-28T10:22:46.965Z,34.80
2023-02-28T10:25:32.189Z,29.50
2023-02-28T10:28:14.752Z,24.80
2023-02-28T10:30:48.829Z,19.90
2023-02-28T10:33:20.776Z,25.20
2023-02-28T10:35:50.058Z,17.40
2023-02-28T10:38:24.762Z,19.30
2023-02-28T10:41:06.364Z,15.10
2023-02-28T10:43:35.950Z,15.20
2023-02-28T10:46:16.670Z,20.10
2023-02-28T10:48:51.353Z,14.60
2023-02-28T10:51:20.669Z,17.10
2023-02-28T10:54:01.457Z,19.80
2023-02-28T10:56:32.117Z,20.20
2023-02-28T10:59:01.068Z,15.00
2023-02-28T11:01:45.992Z,39.60
2023-02-28T11:04:24.156Z,36.60
2023-02-28T11:07:04.322Z,23.20
2023-02-28T11:09:54.241Z,19.80
2023-02-28T11:12:27.604Z,19.80
2023-02-28T11:15:01.579Z,14.60
2023-02-28T11:17:33.290Z,18.90
2023-02-28T11:20:08.884Z,17.80
2023-02-28T11:22:46.131Z,16.70
2023-02-28T11:25:24.994Z,16.90
2023-02-28T11:27:57.044Z,17.40
2023-02-28T11:30:32.208Z,16.30
2023-02-28T11:33:02.161Z,18.50
2023-02-28T11:35:39.733Z,16.50
2023-02-28T11:38:14.282Z,18.20
2023-02-28T11:40:55.917Z,17.90
2023-02-28T11:43:45.951Z,24.40
2023-02-28T11:49:05.439Z,24.00
2023-02-28T11:51:49.090Z,24.20
2023-02-28T11:55:00.088Z,27.10
2023-02-28T11:57:51.796Z,27.30
2023-02-28T12:00:54.646Z,43.80
2023-02-28T12:03:35.924Z,38.90
2023-02-28T12:06:33.139Z,46.30
2023-02-28T12:09:13.344Z,42.60
2023-02-28T12:12:07.822Z,29.90
2023-02-28T12:15:01.295Z,70.90
2023-02-28T12:17:44.939Z,35.50
2023-02-28T12:20:32.579Z,25.20
2023-02-28T12:23:28.515Z,23.70
2023-02-28T12:26:07.445Z,26.80
2023-02-28T12:28:42.878Z,21.70
2023-02-28T12:31:21.724Z,22.70
2023-02-28T12:33:58.630Z,52.10
2023-02-28T12:36:30.052Z,26.50
2023-02-28T12:39:05.504Z,21.00
2023-02-28T12:41:46.801Z,25.00
2023-02-28T12:44:44.540Z,24.60
2023-02-28T12:47:19.142Z,26.40
2023-02-28T12:50:03.311Z,22.20
2023-02-28T12:52:43.674Z,22.40
2023-02-28T12:58:00.991Z,22.70
2023-02-28T13:00:36.531Z,22.10
2023-02-28T13:03:27.148Z,25.30
2023-02-28T13:06:22.448Z,21.00
2023-02-28T13:09:10.674Z,22.80
2023-02-28T13:11:46.389Z,23.40
2023-02-28T13:14:28.470Z,32.60
2023-02-28T13:17:02.973Z,26.10
2023-02-28T13:19:35.160Z,25.90
2023-02-28T13:22:05.599Z,25.40
2023-02-28T13:24:45.906Z,19.50
2023-02-28T13:27:17.509Z,27.30
2023-02-28T13:29:46.313Z,25.70
2023-02-28T13:32:27.723Z,23.20
2023-02-28T13:34:56.681Z,36.50
2023-02-28T13:37:26.071Z,26.80
2023-02-28T13:39:57.342Z,19.60
2023-02-28T13:42:49.409Z,28.60
2023-02-28T13:45:39.933Z,26.30
2023-02-28T13:48:29.134Z,25.10
2023-02-28T13:50:58.306Z,26.70
2023-02-28T13:53:55.858Z,26.70
2023-02-28T13:57:20.028Z,27.10
2023-02-28T13:59:56.139Z,28.50
2023-02-28T14:02:40.429Z,26.40
2023-02-28T14:05:22.871Z,24.60
2023-02-28T14:07:59.936Z,26.10
2023-02-28T14:10:34.240Z,25.80
2023-02-28T14:13:15.274Z,29.70
2023-02-28T14:16:02.106Z,24.60
2023-02-28T14:18:33.888Z,34.30
2023-02-28T14:21:27.003Z,26.60
2023-02-28T14:24:38.262Z,29.40
2023-02-28T14:27:39.083Z,28.20
2023-02-28T14:33:15.216Z,26.20
2023-02-28T14:35:54.856Z,28.70
2023-02-28T14:38:33.332Z,36.60
2023-02-28T14:41:08.497Z,77.50
2023-02-28T14:43:38.235Z,101.60
2023-02-28T14:46:08.970Z,24.20
2023-02-28T14:48:39.530Z,39.00
2023-02-28T14:51:10.896Z,30.90
2023-02-28T14:53:39.742Z,28.90
2023-02-28T14:56:22.888Z,24.50
2023-02-28T14:58:55.572Z,23.40
2023-02-28T15:01:28.035Z,32.30
2023-02-28T15:04:07.018Z,27.10
2023-02-28T15:06:36.446Z,20.20
2023-02-28T15:09:16.364Z,31.90
2023-02-28T15:11:50.055Z,23.50
2023-02-28T15:14:22.708Z,25.40
2023-02-28T15:17:01.638Z,24.70
2023-02-28T15:19:41.366Z,24.00
2023-02-28T15:22:19.869Z,27.30
2023-02-28T15:24:53.288Z,38.30
2023-02-28T15:27:27.142Z,34.80
2023-02-28T15:29:59.593Z,39.20
2023-02-28T15:32:41.142Z,41.20
2023-02-28T15:35:39.004Z,37.00
2023-02-28T15:38:30.799Z,33.00
2023-02-28T15:41:02.784Z,42.60
2023-02-28T15:43:41.435Z,28.40
2023-02-28T15:46:13.620Z,36.70
2023-02-28T15:48:52.996Z,28.80
2023-02-28T15:51:44.397Z,33.00
2023-02-28T15:54:35.056Z,31.40
2023-02-28T15:57:10.161Z,40.50
2023-02-28T15:59:39.422Z,32.40
2023-02-28T16:02:20.900Z,21.10
2023-02-28T16:05:03.411Z,61.10
2023-02-28T16:07:31.987Z,86.00
2023-02-28T16:10:01.563Z,65.70
2023-02-28T16:12:36.809Z,51.30
2023-02-28T16:15:18.637Z,54.30
2023-02-28T16:17:48.554Z,79.70
2023-02-28T16:20:23.671Z,64.00
2023-02-28T16:22:53.281Z,58.00
2023-02-28T16:25:28.072Z,63.60
2023-02-28T16:27:58.989Z,63.50
2023-02-28T16:30:34.044Z,55.50
2023-02-28T16:33:03.166Z,58.40
2023-02-28T16:35:32.164Z,84.60
2023-02-28T16:38:01.039Z,75.80
2023-02-28T16:40:36.393Z,83.90
2023-02-28T16:43:27.147Z,74.00
2023-02-28T16:46:01.192Z,139.30
2023-02-28T16:48:32.001Z,100.10
2023-02-28T16:51:01.238Z,86.60
2023-02-28T16:53:30.051Z,86.70
2023-02-28T16:56:07.349Z,81.30
2023-02-28T16:58:37.473Z,87.10
2023-02-28T17:01:06.291Z,98.30
2023-02-28T17:03:36.021Z,138.30
2023-02-28T17:06:05.793Z,178.80
2023-02-28T17:11:05.900Z,251.80
2023-02-28T17:13:35.821Z,322.20
2023-02-28T17:16:05.724Z,405.80
2023-02-28T17:18:39.131Z,446.20
2023-02-28T17:21:15.859Z,346.60
2023-02-28T17:23:46.576Z,407.40
2023-02-28T17:26:22.768Z,604.00
2023-02-28T17:28:56.312Z,591.60
2023-02-28T17:31:26.868Z,499.20
2023-02-28T17:33:56.436Z,378.10
2023-02-28T17:36:27.789Z,313.40
2023-02-28T17:38:59.466Z,322.50
2023-02-28T17:41:31.926Z,362.10
2023-02-28T17:44:01.372Z,426.90
2023-02-28T17:46:30.309Z,377.30
2023-02-28T17:48:59.523Z,464.30
2023-02-28T17:51:29.005Z,431.20
2023-02-28T17:54:00.197Z,324.10
2023-02-28T17:56:29.604Z,392.00
2023-02-28T17:58:59.749Z,344.90
2023-02-28T18:01:28.793Z,334.00
2023-02-28T18:04:15.686Z,290.50
2023-02-28T18:07:06.885Z,238.50
2023-02-28T18:10:08.703Z,204.10
2023-02-28T18:13:00.730Z,274.10
2023-02-28T18:15:48.548Z,293.30
2023-02-28T18:18:44.453Z,316.50
2023-02-28T18:21:35.169Z,468.20
2023-02-28T18:24:26.377Z,518.40
2023-02-28T18:27:19.243Z,397.00
2023-02-28T18:30:09.271Z,236.10
2023-02-28T18:33:16.492Z,197.10
2023-02-28T18:36:09.328Z,142.40
2023-02-28T18:38:55.886Z,150.90
2023-02-28T18:41:41.754Z,155.50
2023-02-28T18:44:20.235Z,157.20
2023-02-28T18:46:51.423Z,146.00
2023-02-28T18:49:21.467Z,120.50
2023-02-28T18:51:50.063Z,124.80
2023-02-28T18:54:19.544Z,103.70
2023-02-28T18:56:48.265Z,175.50
2023-02-28T18:59:17.208Z,116.80
2023-02-28T19:01:46.897Z,187.30
2023-02-28T19:04:16.661Z,195.40
2023-02-28T19:09:14.498Z,109.50
2023-02-28T19:11:43.575Z,105.50
2023-02-28T19:14:12.415Z,202.50
2023-02-28T19:16:43.778Z,135.10
2023-02-28T19:19:12.753Z,168.40
2023-02-28T19:21:41.495Z,165.90
2023-02-28T19:24:10.818Z,142.80
2023-02-28T19:26:39.657Z,130.00
2023-02-28T19:29:08.410Z,105.70
2023-02-28T19:31:38.557Z,82.60
2023-02-28T19:34:07.923Z,80.60
2023-02-28T19:36:36.596Z,102.70
2023-02-28T19:39:06.437Z,101.90
2023-02-28T19:41:35.568Z,110.90
2023-02-28T19:44:04.152Z,122.00
2023-02-28T19:46:33.232Z,107.90
2023-02-28T19:49:02.431Z,132.80
2023-02-28T19:51:31.103Z,129.50
2023-02-28T19:53:59.874Z,101.10
2023-02-28T19:56:32.399Z,118.40
2023-02-28T19:59:01.270Z,95.50
2023-02-28T20:01:30.687Z,74.70
2023-02-28T20:04:05.017Z,85.70
2023-02-28T20:06:34.593Z,86.60
2023-02-28T20:09:03.230Z,85.30
2023-02-28T20:11:32.209Z,69.90
2023-02-28T20:14:05.518Z,77.40
2023-02-28T20:16:34.500Z,77.30
2023-02-28T20:19:03.386Z,69.20
2023-02-28T20:24:05.707Z,80.40
2023-02-28T20:26:34.505Z,81.40
2023-02-28T20:29:03.961Z,88.60
2023-02-28T20:31:34.838Z,104.60
2023-02-28T20:34:04.173Z,95.40
2023-02-28T20:36:33.394Z,80.30
2023-02-28T20:39:02.406Z,83.20
2023-02-28T20:41:31.159Z,82.10
2023-02-28T20:44:04.302Z,72.40
2023-02-28T20:46:34.951Z,80.00
2023-02-28T20:49:06.000Z,84.30
2023-02-28T20:51:37.500Z,79.40
2023-02-28T20:54:11.766Z,104.30
2023-02-28T20:56:40.850Z,90.70
2023-02-28T20:59:11.932Z,106.70
2023-02-28T21:01:43.509Z,146.00
2023-02-28T21:04:12.689Z,144.40
2023-02-28T21:06:48.143Z,151.60
2023-02-28T21:09:19.560Z,144.20
2023-02-28T21:11:49.004Z,128.60
2023-02-28T21:14:18.501Z,163.70
2023-02-28T21:16:47.188Z,177.50
2023-02-28T21:19:17.012Z,223.10
2023-02-28T21:21:48.344Z,187.50
2023-02-28T21:24:20.435Z,163.30
2023-02-28T21:26:49.455Z,154.80
2023-02-28T21:29:18.172Z,119.80
2023-02-28T21:31:50.431Z,116.70
2023-02-28T21:34:21.614Z,111.50
2023-02-28T21:36:50.563Z,103.00
2023-02-28T21:39:26.218Z,83.20
2023-02-28T21:41:57.624Z,93.10
2023-02-28T21:44:28.408Z,88.70
2023-02-28T21:47:01.395Z,87.90
2023-02-28T21:49:30.530Z,102.40
2023-02-28T21:51:59.550Z,89.30
2023-02-28T21:54:28.545Z,57.00
2023-02-28T21:56:57.272Z,87.90
2023-02-28T21:59:26.497Z,66.70
2023-02-28T22:01:56.425Z,91.80
2023-02-28T22:04:27.477Z,90.00
2023-02-28T22:06:57.907Z,93.10
2023-02-28T22:09:27.458Z,79.70
2023-02-28T22:11:57.080Z,72.10
2023-02-28T22:14:29.890Z,71.50
2023-02-28T22:16:58.817Z,72.30
2023-02-28T22:19:29.068Z,66.90
2023-02-28T22:21:59.360Z,60.50
2023-02-28T22:24:27.968Z,61.40
2023-02-28T22:26:56.560Z,63.00
2023-02-28T22:29:25.647Z,68.70
2023-02-28T22:31:54.296Z,93.50
2023-02-28T22:34:22.952Z,81.20
2023-02-28T22:36:52.061Z,77.80
2023-02-28T22:39:21.448Z,74.80
2023-02-28T22:41:49.930Z,87.50
2023-02-28T22:44:19.055Z,94.90
2023-02-28T22:46:53.675Z,90.70
2023-02-28T22:49:23.399Z,109.40
2023-02-28T22:51:52.041Z,70.20
2023-02-28T22:54:20.825Z,88.40
2023-02-28T22:56:50.176Z,83.50
2023-02-28T22:59:18.742Z,65.90
2023-02-28T23:01:47.336Z,71.80
2023-02-28T23:04:16.369Z,77.30
2023-02-28T23:06:45.171Z,82.90
2023-02-28T23:09:18.690Z,77.10
2023-02-28T23:11:49.858Z,74.20
2023-02-28T23:14:20.765Z,72.00
2023-02-28T23:16:54.838Z,69.30
2023-02-28T23:19:27.171Z,75.80
2023-02-28T23:21:57.611Z,67.50
2023-02-28T23:24:28.732Z,73.50
2023-02-28T23:27:00.069Z,75.00
2023-02-28T23:29:29.942Z,81.50
2023-02-28T23:34:30.845Z,75.90
2023-02-28T23:37:01.797Z,76.90
2023-02-28T23:39:32.486Z,78.90
2023-02-28T23:42:08.712Z,92.00
2023-02-28T23:44:37.605Z,125.70
2023-02-28T23:47:06.775Z,115.70
2023-02-28T23:49:35.365Z,112.90
2023-02-28T23:52:04.492Z,94.20
2023-02-28T23:54:33.479Z,99.60
2023-02-28T23:57:02.065Z,118.70
2023-02-28T23:59:31.952Z,136.60
